Greenville Downtown Airport
KGMU : now visible

Airfield :











YOU CAN JOIN US ON...

 
LOGIN :

Register | Disclaimer

   EN    FR    IT 

 









Legend :    VFR   Marginal VFR   IFR   Intensive IFR   Very Intensive IFR
Visi :
Ceiling :
>= 8 km
>= 3000ft
5 to 8 km
1000 to 3000 ft
1500m to 5 km
500 to 1000 ft
800 to 1500m
200 to 500 ft
< 800m
< 200 ft
Symbols :   Thunderstorms  Fog  Heavy snow  Heavy precipitations  Wind > 20 kt






- Airport Elevation : 1048 ft


KGMU - Greenville Downtown

CURRENT METAR :
  • 060253Z AUTO 00000KT 10SM BKN090 18/13 A3007 RMK AO2 RAE13 SLP177 P0000 60000 T01830133 50015

EXPIRED METARs :
  • 060153Z AUTO 31006KT 7SM -RA BKN080 OVC090 19/12 A3008 RMK AO2 RAB33 SLP181 P0000 T01940117
  • 060053Z 16003KT 10SM SCT110 22/07 A3003 RMK AO2 SLP163 T02220072

TAF KGMU
Valid from the 06 at 02:00 until the 07 at 00:00 UTC


060228Z 0602/0624 VRB04KT P6SM BKN080
FM060600 24003KT P6SM SCT100
FM061500 24008KT P6SM SCT060
PROB30 0619/0623 -TSRA BKN060CB
FM062300 25005KT P6SM FEW060 BKN150



MET'MAP, your aeronautical weather chart ! - Copyright ORBIFLY December 2007 - Disclaimer

ORBIFLY MET'MAP TEAM :

Programming & Development : Alexandra Zaïnal
Concept & original design : Baudouin d'Aumeries
Assistance for programming : Marc-Olivier Méhu
Technical & hardware support : Manuel Goepfert

Contact : metmap@orbifly.com




SOURCES & CREDITS :

   NOAA       Earth
Advisory